Newport, OR

9:32 PM PDT on October 19, 2014 (GMT -0700)
Corvallis Municipal | Change Station
CLOSE
Current Station
Airport
Location: Corvallis,
Elevation: 246 ft
Nearby Weather Stations

Elev 246 ft 44.50 °N, 123.29 °W | Updated 1 hour ago

Mostly Cloudy
Mostly Cloudy
63 °F
Feels Like 63 °F
N
9
Wind Variable Wind from WNW

Today
High -- | Low -- °F
--% Chance of Precip.
Yesterday
High -- | Low -- °F
Precip. -- in
7:36 AM 6:24 PM
Waning Crescent, 13% visible
Pressure 29.74 in
Visibility 10.0 miles
Clouds Few 11000 ft
Dew Point 55 °F
Humidity 77%
Rainfall 0.00 in
Snow Depth Not available.
UV 0 out of 12
Pollen 1.70 out of 12
Air Quality Not available.
Flu Activity Sporadic
METAR KCVO 200315Z AUTO 30008KT 10SM FEW110 17/13 A2974 RMK AO1

More Conditions Fewer Conditions

Pressure 29.74 in
Visibility 10.0 miles
Clouds Few 11000 ft
Dew Point 55 °F
Humidity 77%
Rainfall 0.00 in
Snow Depth Not available.
UV 0 out of 12
Pollen 1.70 out of 12
Air Quality Not available.
Flu Activity Sporadic
METAR KCVO 200315Z AUTO 30008KT 10SM FEW110 17/13 A2974 RMK AO1

More Conditions Fewer Conditions

10-Day Weather Forecast

Almanac

Astronomy

Oct. 19, 2014 Rise Set
Actual Time 7:36 AM PDT 6:24 PM PDT
Civil Twilight 7:07 AM PDT 6:54 PM PDT
Nautical Twilight 6:33 AM PDT 7:27 PM PDT
Astronomical Twilight 5:59 AM PDT 8:01 PM PDT
Moon 3:25 AM PDT (10/19) 4:27 PM PDT (10/19)
Length of Visible Light 11h 47m
Length of Day
10h 47m
Waning Crescent, 13% of the Moon is Illuminated
Oct 20
Waning Crescent
Oct 23
New
Oct 30
First Quarter
Nov 6
Full
Nov 14
Last Quarter

Yesterday's Extremes

State Highs State Lows

Community

WunderPhotos

Upload Photos

1,763,294 photos uploaded!

Nearby

Snow Depth

Station Depth Elevation
Seine Creek 0 in 2000 ft
Jump Off Joe 0 in 3500 ft
Daly Lake 0 in 3600 ft
Holland Meadows 0 in 4900 ft
Marion Forks 0 in 2600 ft

Earthquake Activity

City Distance Mag. Time & Date
No recent earthquake activity has been reported nearby.
Minimum magnitude displayed is 2.5.

Coastal Water Temperatures

Place Temperature
South Beach, OR 60.1 °F
Charleston, OR 59.0 °F

Nearby Weather Stations